Time;durP1;ratioP1;P1;durP2;ratioP2;P2;SDS_P1;SDS_P2;PMS_P1;PMS_P2;Temp;Humidity;BMP_temperature;BMP_pressure;BME280_temperature;BME280_humidity;BME280_pressure;Samples;Min_cycle;Max_cycle;Signal;HPM_P1;HPM_P2
2022/08/14 00:01:20;;;;;;;4.60;3.97;;;;;;;16.83;68.41;97791.16;5060722;28;20211;-67
2022/08/14 00:03:46;;;;;;;4.97;4.30;;;;;;;16.75;69.27;97788.44;5058056;28;20298;-66
2022/08/14 00:06:14;;;;;;;4.37;3.97;;;;;;;16.72;69.24;97783.41;5058001;28;20212;-66
2022/08/14 00:08:41;;;;;;;5.10;4.40;;;;;;;16.67;69.40;97772.34;5057312;28;20242;-66
2022/08/14 00:11:07;;;;;;;4.03;3.73;;;;;;;16.64;69.29;97771.81;5061246;28;20218;-67
2022/08/14 00:13:34;;;;;;;4.37;4.03;;;;;;;16.61;69.22;97772.97;5058125;28;20212;-66
2022/08/14 00:16:00;;;;;;;4.90;4.50;;;;;;;16.54;69.41;97758.56;5057278;28;20223;-66
2022/08/14 00:18:28;;;;;;;4.50;4.10;;;;;;;16.51;69.83;97758.84;5057161;28;20220;-66
2022/08/14 00:20:59;;;;;;;4.17;3.87;;;;;;;16.44;69.94;97760.44;5060530;28;20563;-66
2022/08/14 00:23:27;;;;;;;4.10;3.80;;;;;;;16.42;70.26;97753.56;5057597;28;20240;-65
2022/08/14 00:25:56;;;;;;;4.30;3.90;;;;;;;16.35;70.36;97757.81;5055737;28;20347;-66
2022/08/14 00:28:25;;;;;;;4.10;3.80;;;;;;;16.28;70.77;97757.56;5057041;28;20319;-66
2022/08/14 00:30:53;;;;;;;4.17;3.77;;;;;;;16.23;71.05;97749.19;5053039;28;20218;-66
2022/08/14 00:33:19;;;;;;;4.50;4.13;;;;;;;16.14;71.93;97746.56;5045316;28;20666;-66
2022/08/14 00:35:46;;;;;;;4.50;4.07;;;;;;;16.09;72.63;97741.69;5057191;28;20216;-66
2022/08/14 00:38:12;;;;;;;4.50;4.00;;;;;;;16.08;72.90;97738.34;5057380;28;20220;-66
2022/08/14 00:40:40;;;;;;;4.57;4.17;;;;;;;16.00;73.40;97733.75;5056488;28;20216;-66
2022/08/14 00:43:08;;;;;;;4.70;4.30;;;;;;;15.95;73.52;97733.34;5056905;28;20209;-66
2022/08/14 00:45:35;;;;;;;4.40;4.10;;;;;;;16.01;73.23;97729.25;5056385;28;20222;-66
2022/08/14 00:48:02;;;;;;;4.20;3.73;;;;;;;16.00;73.47;97720.41;5056900;28;20286;-66
2022/08/14 00:50:30;;;;;;;4.03;3.73;;;;;;;16.06;73.09;97719.00;5060589;28;20211;-66
2022/08/14 00:52:58;;;;;;;3.80;3.50;;;;;;;16.09;72.92;97717.69;5055539;28;20293;-66
2022/08/14 00:55:26;;;;;;;4.00;3.47;;;;;;;16.12;72.78;97719.22;5057001;28;20216;-66
2022/08/14 01:00:37;;;;;;;3.90;3.60;;;;;;;16.15;72.14;97719.75;5054278;28;20211;-66
2022/08/14 01:03:05;;;;;;;3.80;3.50;;;;;;;16.19;71.80;97714.94;5056939;28;20223;-66
2022/08/14 01:05:32;;;;;;;3.63;3.33;;;;;;;16.22;71.37;97720.00;5056938;28;20216;-66
2022/08/14 01:08:00;;;;;;;3.87;3.57;;;;;;;16.20;71.56;97728.16;5058775;28;20269;-66
2022/08/14 01:10:49;;;;;;;4.13;3.50;;;;;;;16.13;72.44;97714.75;5058705;28;20222;-66
2022/08/14 01:13:19;;;;;;;3.57;3.33;;;;;;;16.08;72.34;97713.34;5056403;28;20212;-66
2022/08/14 01:15:48;;;;;;;4.13;3.40;;;;;;;16.03;72.76;97709.47;5057834;28;20220;-66
2022/08/14 01:21:07;;;;;;;4.50;3.40;;;;;;;16.08;71.52;97712.50;5056487;28;20304;-66
2022/08/14 01:23:39;;;;;;;4.13;3.30;;;;;;;16.08;71.54;97713.34;5057284;28;20219;-66
2022/08/14 01:26:07;;;;;;;3.80;3.50;;;;;;;15.89;73.28;97711.78;5058985;28;20223;-66
2022/08/14 01:28:36;;;;;;;3.53;3.23;;;;;;;15.76;74.08;97711.31;5056264;28;20247;-66
2022/08/14 01:31:07;;;;;;;3.87;3.50;;;;;;;15.61;75.12;97718.09;5056550;28;20208;-67
2022/08/14 01:33:39;;;;;;;4.00;3.60;;;;;;;15.58;75.34;97713.06;5058658;28;20215;-66
2022/08/14 01:36:08;;;;;;;3.80;3.50;;;;;;;15.54;75.94;97714.34;5057651;28;20220;-66
2022/08/14 01:38:37;;;;;;;3.97;3.67;;;;;;;15.49;76.36;97719.25;5056231;28;20255;-66
2022/08/14 01:41:06;;;;;;;4.40;4.00;;;;;;;15.47;76.57;97707.94;5056537;28;20204;-65
2022/08/14 01:43:38;;;;;;;4.60;4.20;;;;;;;15.46;76.71;97708.91;5058008;28;20669;-66
2022/08/14 01:46:08;;;;;;;4.00;3.70;;;;;;;15.46;76.71;97714.25;5044415;28;20289;-66
2022/08/14 01:48:34;;;;;;;4.33;3.90;;;;;;;15.51;76.00;97696.00;5056386;28;20247;-66
2022/08/14 01:51:01;;;;;;;4.50;4.10;;;;;;;15.46;76.32;97692.94;5056606;28;20234;-66
2022/08/14 01:53:30;;;;;;;4.40;4.00;;;;;;;15.38;76.98;97695.47;5060190;28;20253;-66
2022/08/14 01:56:00;;;;;;;4.57;4.17;;;;;;;15.29;77.63;97686.53;5045051;28;20555;-66
2022/08/14 01:58:28;;;;;;;4.50;4.10;;;;;;;15.27;77.90;97698.31;5060151;28;20243;-66
2022/08/14 02:00:55;;;;;;;4.23;3.93;;;;;;;15.24;77.90;97695.91;5060638;28;20220;-65
2022/08/14 02:03:22;;;;;;;4.73;3.93;;;;;;;15.18;78.32;97683.19;5063288;28;20298;-65
2022/08/14 02:05:49;;;;;;;5.10;4.70;;;;;;;15.09;79.05;97678.75;5059821;28;20219;-65
2022/08/14 02:08:15;;;;;;;4.67;4.27;;;;;;;14.98;80.09;97670.94;5059930;28;20231;-65
2022/08/14 02:10:42;;;;;;;4.93;4.20;;;;;;;14.90;80.06;97668.16;5058726;28;20216;-65
2022/08/14 02:13:10;;;;;;;4.80;4.40;;;;;;;14.90;80.13;97673.47;5063530;28;20215;-66
2022/08/14 02:15:39;;;;;;;4.80;4.30;;;;;;;14.89;80.56;97674.44;5059537;28;20212;-65
2022/08/14 02:18:06;;;;;;;4.30;4.00;;;;;;;14.93;80.89;97678.50;5059487;28;20208;-65
2022/08/14 02:20:33;;;;;;;4.53;4.13;;;;;;;15.00;80.26;97682.25;5060138;28;20235;-65
2022/08/14 02:23:01;;;;;;;4.60;4.20;;;;;;;15.05;79.90;97682.69;5062920;28;20215;-66
2022/08/14 02:25:27;;;;;;;4.63;4.30;;;;;;;15.01;80.17;97691.91;5059421;28;20216;-65
2022/08/14 02:27:55;;;;;;;4.10;3.80;;;;;;;15.01;80.31;97682.13;5059500;28;20216;-65
2022/08/14 02:30:23;;;;;;;4.70;4.30;;;;;;;15.08;80.01;97677.03;5059827;28;20212;-65
2022/08/14 02:32:50;;;;;;;4.80;4.40;;;;;;;15.07;79.72;97681.56;5063131;28;20215;-65
2022/08/14 02:35:17;;;;;;;4.93;4.40;;;;;;;14.95;80.73;97668.53;5057489;28;20222;-66
2022/08/14 02:37:44;;;;;;;4.27;3.93;;;;;;;14.90;80.66;97671.63;5059440;28;20220;-65
2022/08/14 02:40:12;;;;;;;4.97;4.57;;;;;;;14.80;81.36;97662.00;5059890;28;20208;-66
2022/08/14 02:42:39;;;;;;;4.73;4.33;;;;;;;14.79;81.15;97657.69;5062769;28;20697;-65
2022/08/14 02:45:07;;;;;;;4.30;4.00;;;;;;;14.73;81.37;97655.59;5059186;28;20220;-65
2022/08/14 02:47:36;;;;;;;4.53;4.13;;;;;;;14.71;82.03;97652.22;5059373;28;20615;-65
2022/08/14 02:50:03;;;;;;;4.37;4.07;;;;;;;14.69;82.31;97644.41;5059484;28;20305;-66
2022/08/14 02:52:30;;;;;;;5.10;4.70;;;;;;;14.61;82.54;97636.28;5062496;28;20211;-65
2022/08/14 02:54:56;;;;;;;5.40;4.90;;;;;;;14.58;82.72;97633.91;5059263;28;20216;-64
2022/08/14 02:57:23;;;;;;;5.00;4.40;;;;;;;14.59;82.83;97640.06;5055657;28;20293;-64
2022/08/14 02:59:51;;;;;;;4.70;4.30;;;;;;;14.61;82.62;97630.13;5058806;28;20673;-66
2022/08/14 03:02:18;;;;;;;4.23;3.93;;;;;;;14.70;81.96;97629.25;5061126;28;20218;-67
2022/08/14 03:04:46;;;;;;;4.37;4.00;;;;;;;14.76;81.91;97618.91;5047148;28;20212;-67
2022/08/14 03:07:15;;;;;;;4.60;4.20;;;;;;;14.77;81.79;97620.56;5058515;28;20216;-66
2022/08/14 03:09:42;;;;;;;4.77;4.30;;;;;;;14.78;81.69;97627.56;5058795;28;20244;-66
2022/08/14 03:12:09;;;;;;;4.53;4.20;;;;;;;14.79;81.85;97620.44;5062710;28;20212;-66
2022/08/14 03:14:37;;;;;;;4.27;3.97;;;;;;;14.80;81.63;97620.25;5047525;28;20223;-66
2022/08/14 03:17:09;;;;;;;5.03;4.07;;;;;;;14.84;81.76;97619.00;5058877;28;20557;-65
2022/08/14 03:19:35;;;;;;;4.40;4.00;;;;;;;14.86;81.49;97603.72;5059426;28;20230;-66
2022/08/14 03:22:04;;;;;;;4.47;4.07;;;;;;;14.80;82.05;97614.13;5061964;28;20208;-66
2022/08/14 03:24:30;;;;;;;5.00;4.60;;;;;;;14.63;83.22;97617.53;5058559;28;20258;-65
2022/08/14 03:26:57;;;;;;;4.80;4.40;;;;;;;14.63;83.21;97617.53;5057425;28;20216;-65
2022/08/14 03:29:24;;;;;;;4.70;4.30;;;;;;;14.63;83.24;97606.88;5058422;28;20242;-66
2022/08/14 03:31:51;;;;;;;4.70;4.30;;;;;;;14.61;82.74;97603.53;5061543;28;20740;-66
2022/08/14 03:34:22;;;;;;;5.43;4.93;;;;;;;14.53;83.23;97600.72;5058327;28;20565;-65
2022/08/14 03:36:53;;;;;;;5.10;4.60;;;;;;;14.44;83.83;97593.63;5058525;28;20298;-66
2022/08/14 03:39:21;;;;;;;5.20;4.43;;;;;;;14.35;84.58;97587.34;5059699;28;20235;-66
2022/08/14 03:41:49;;;;;;;4.70;4.30;;;;;;;14.34;84.55;97584.81;5060328;28;20215;-66
2022/08/14 03:44:15;;;;;;;5.73;4.63;;;;;;;14.31;84.45;97593.09;5058473;28;20212;-65
2022/08/14 03:46:42;;;;;;;5.33;4.93;;;;;;;14.24;85.00;97590.16;5058216;28;20506;-66
2022/08/14 03:49:09;;;;;;;5.70;4.50;;;;;;;14.14;85.71;97597.28;5059084;28;20232;-65
2022/08/14 03:51:36;;;;;;;5.63;4.97;;;;;;;14.13;86.15;97595.56;5060906;28;20254;-65
2022/08/14 03:54:07;;;;;;;5.53;4.67;;;;;;;14.14;85.30;97588.44;5056118;28;20735;-65
2022/08/14 03:56:36;;;;;;;5.10;4.70;;;;;;;14.13;85.39;97589.44;5057892;28;20251;-65
2022/08/14 03:59:06;;;;;;;7.03;5.20;;;;;;;14.07;85.92;97592.66;5059800;28;20220;-65
2022/08/14 04:01:34;;;;;;;5.30;4.80;;;;;;;14.06;86.20;97590.97;5059211;28;20210;-65
2022/08/14 04:04:05;;;;;;;6.13;4.90;;;;;;;14.00;86.84;97588.88;5057822;28;20216;-65
2022/08/14 04:06:31;;;;;;;5.70;5.20;;;;;;;13.97;87.11;97586.50;5057827;28;20216;-66
2022/08/14 04:08:58;;;;;;;5.23;4.80;;;;;;;14.00;86.84;97592.38;5059902;28;20235;-66
2022/08/14 04:11:25;;;;;;;5.40;4.90;;;;;;;13.94;87.26;97581.47;5057922;28;20208;-65
2022/08/14 04:13:53;;;;;;;5.33;4.83;;;;;;;13.89;88.20;97586.38;5057493;28;20220;-65
2022/08/14 04:16:22;;;;;;;5.27;4.83;;;;;;;13.80;89.30;97589.84;5057334;28;20224;-65
2022/08/14 04:18:52;;;;;;;5.70;5.20;;;;;;;13.86;88.71;97594.59;5058913;28;20224;-65
2022/08/14 04:21:23;;;;;;;5.33;4.93;;;;;;;13.85;88.23;97587.59;5057231;28;20582;-65
2022/08/14 04:23:50;;;;;;;5.47;4.97;;;;;;;13.82;88.68;97583.41;5057267;28;20686;-65
2022/08/14 04:26:20;;;;;;;5.27;4.77;;;;;;;13.84;88.78;97586.78;5057163;28;20216;-66
2022/08/14 04:28:48;;;;;;;4.83;4.43;;;;;;;13.93;88.20;97577.97;5052631;28;20251;-66
2022/08/14 04:31:17;;;;;;;5.63;5.10;;;;;;;13.96;88.47;97582.16;5057325;28;20212;-65
2022/08/14 04:33:43;;;;;;;10.17;5.10;;;;;;;14.00;88.45;97570.28;5057061;28;20211;-65
2022/08/14 04:36:10;;;;;;;5.10;4.70;;;;;;;14.07;87.79;97566.94;5057033;28;20212;-65
2022/08/14 04:44:13;;;;;;;5.13;4.60;;;;;;;14.20;88.14;97577.28;5057944;28;20265;-65
2022/08/14 04:48:11;;;;;;;5.73;4.93;;;;;;;14.23;88.02;97572.53;5058262;28;20208;-65
2022/08/14 04:49:29;;;;;;;5.13;4.73;;;;;;;14.33;87.71;97577.81;5056548;28;20661;-65
2022/08/14 04:51:55;;;;;;;4.47;4.13;;;;;;;14.45;87.19;97576.69;5057061;28;20212;-65
2022/08/14 04:54:23;;;;;;;4.63;4.23;;;;;;;14.55;86.51;97572.19;5052584;28;20219;-65
2022/08/14 04:56:49;;;;;;;5.57;5.07;;;;;;;14.62;87.26;97578.63;5056784;28;20710;-65
2022/08/14 04:59:16;;;;;;;5.93;4.83;;;;;;;14.78;86.81;97573.53;5056941;28;20215;-64
2022/08/14 05:01:44;;;;;;;5.00;4.60;;;;;;;14.97;85.79;97581.44;5056715;28;20208;-65
2022/08/14 05:04:11;;;;;;;5.17;4.67;;;;;;;15.11;85.28;97580.94;5060276;28;20215;-65
2022/08/14 05:06:38;;;;;;;5.07;4.67;;;;;;;15.23;85.38;97585.09;5057410;28;20220;-65
2022/08/14 05:09:05;;;;;;;5.43;4.93;;;;;;;15.38;84.38;97581.81;5056536;28;20236;-65
2022/08/14 05:11:32;;;;;;;5.53;4.43;;;;;;;15.58;83.29;97582.56;5054960;28;20696;-65
2022/08/14 05:14:00;;;;;;;4.30;4.00;;;;;;;15.79;82.08;97583.94;5060179;28;20314;-65
2022/08/14 05:16:28;;;;;;;4.80;4.40;;;;;;;15.98;81.38;97587.28;5057044;28;20262;-65
2022/08/14 05:18:55;;;;;;;5.10;4.70;;;;;;;16.18;80.47;97586.16;5056492;28;20212;-65
2022/08/14 05:21:23;;;;;;;4.80;4.40;;;;;;;16.35;80.66;97587.94;5056711;28;20650;-66
2022/08/14 05:23:50;;;;;;;5.10;4.70;;;;;;;16.46;80.58;97589.56;5059870;28;20683;-65
2022/08/14 05:26:20;;;;;;;5.00;4.60;;;;;;;16.67;79.54;97579.38;5056715;28;20666;-65
2022/08/14 05:28:46;;;;;;;5.20;4.70;;;;;;;16.82;78.78;97581.31;5056498;28;20268;-65
2022/08/14 05:31:16;;;;;;;4.83;4.43;;;;;;;17.00;77.88;97581.25;5058485;28;20216;-65
2022/08/14 05:33:44;;;;;;;5.43;4.50;;;;;;;17.16;76.90;97584.84;5056399;28;20222;-66
2022/08/14 05:36:13;;;;;;;4.80;4.40;;;;;;;17.24;76.90;97576.84;5048497;28;20216;-66
2022/08/14 05:38:43;;;;;;;4.90;4.50;;;;;;;17.38;76.17;97578.13;5058987;28;20220;-65
2022/08/14 05:41:12;;;;;;;5.17;4.63;;;;;;;17.52;75.47;97581.00;5060937;28;20262;-67
2022/08/14 05:43:39;;;;;;;5.43;4.47;;;;;;;17.66;75.44;97576.84;5063232;28;20219;-64
2022/08/14 05:46:07;;;;;;;4.83;4.40;;;;;;;17.82;74.98;97569.72;5060064;28;20223;-64
2022/08/14 05:48:33;;;;;;;4.83;4.33;;;;;;;18.02;74.56;97565.75;5059911;28;20208;-65
2022/08/14 05:51:00;;;;;;;4.83;4.43;;;;;;;18.55;71.95;97573.31;5060725;28;20247;-64
2022/08/14 05:53:28;;;;;;;5.03;4.57;;;;;;;19.34;68.70;97564.28;5063259;28;20301;-64
2022/08/14 05:55:57;;;;;;;4.80;4.33;;;;;;;20.03;65.16;97561.53;5060024;28;20301;-64
2022/08/14 05:58:25;;;;;;;4.73;4.23;;;;;;;20.74;62.06;97559.28;5059719;28;20239;-65
2022/08/14 06:00:52;;;;;;;4.23;3.83;;;;;;;21.47;59.53;97564.69;5060726;28;20311;-64
2022/08/14 06:03:21;;;;;;;4.73;4.33;;;;;;;22.06;56.50;97567.09;5061333;28;20656;-64
2022/08/14 06:05:49;;;;;;;4.20;3.90;;;;;;;22.56;54.04;97569.69;5059813;28;20303;-66
2022/08/14 06:08:18;;;;;;;4.37;4.00;;;;;;;22.94;52.83;97562.97;5060154;28;20223;-65
2022/08/14 06:10:46;;;;;;;5.03;4.07;;;;;;;22.98;51.37;97558.00;5060718;28;20239;-64
2022/08/14 06:13:13;;;;;;;4.50;3.67;;;;;;;22.69;52.47;97558.19;5062341;28;20216;-65
2022/08/14 06:15:40;;;;;;;4.13;3.83;;;;;;;22.49;52.78;97562.59;5059842;28;20220;-65
2022/08/14 06:18:07;;;;;;;3.87;3.50;;;;;;;22.46;52.99;97558.41;5059839;28;20208;-64
2022/08/14 06:20:33;;;;;;;4.77;3.57;;;;;;;22.76;51.88;97557.22;5059709;28;20216;-65
2022/08/14 06:23:00;;;;;;;4.40;3.60;;;;;;;22.98;51.53;97553.44;5055137;28;20622;-65
2022/08/14 06:25:26;;;;;;;4.00;3.70;;;;;;;22.87;51.52;97547.75;5059886;28;20216;-65
2022/08/14 06:27:55;;;;;;;3.73;3.40;;;;;;;22.78;52.11;97538.16;5059733;28;20212;-65
2022/08/14 06:30:24;;;;;;;5.23;3.67;;;;;;;23.05;51.73;97548.91;5058620;28;20240;-65
2022/08/14 06:32:51;;;;;;;4.20;3.90;;;;;;;23.43;49.88;97547.53;5062129;28;20215;-64
2022/08/14 06:35:19;;;;;;;4.17;3.77;;;;;;;23.50;49.49;97543.00;5059360;28;20216;-65
2022/08/14 06:37:48;;;;;;;3.93;3.63;;;;;;;23.13;50.54;97538.00;5059622;28;20216;-66
2022/08/14 06:40:17;;;;;;;3.77;3.47;;;;;;;22.42;52.67;97529.31;5060811;28;20246;-64
2022/08/14 06:42:44;;;;;;;5.63;3.80;;;;;;;21.85;54.01;97531.25;5060667;28;20669;-63
2022/08/14 06:45:12;;;;;;;4.17;3.77;;;;;;;21.48;55.68;97537.63;5059222;28;20291;-63
2022/08/14 06:47:41;;;;;;;3.90;3.60;;;;;;;21.28;56.57;97533.03;5059413;28;20220;-63
2022/08/14 06:50:10;;;;;;;3.83;3.50;;;;;;;21.09;56.87;97528.22;5060618;28;20713;-63
2022/08/14 06:52:37;;;;;;;3.80;3.50;;;;;;;21.00;57.53;97523.94;5061350;28;20223;-62
2022/08/14 06:55:05;;;;;;;4.00;3.70;;;;;;;20.94;57.99;97514.78;5057572;28;20216;-62
2022/08/14 06:57:36;;;;;;;4.27;3.67;;;;;;;20.96;57.94;97517.28;5059159;28;20267;-64
2022/08/14 07:00:06;;;;;;;3.60;3.30;;;;;;;20.99;57.94;97517.75;5061326;28;20216;-64
2022/08/14 07:08:02;;;;;;;3.87;3.57;;;;;;;21.31;56.37;97513.81;5062000;28;20265;-62
2022/08/14 07:10:29;;;;;;;4.03;3.17;;;;;;;21.39;56.11;97503.78;5059257;28;20240;-62
2022/08/14 07:12:55;;;;;;;3.40;3.20;;;;;;;21.44;55.48;97512.13;5058493;28;20212;-62
2022/08/14 07:15:22;;;;;;;3.47;3.17;;;;;;;21.45;54.64;97500.34;5058815;28;20244;-62
2022/08/14 07:17:51;;;;;;;4.97;3.40;;;;;;;21.53;55.33;97497.53;5061441;28;20218;-62
2022/08/14 07:20:19;;;;;;;3.57;3.27;;;;;;;21.65;55.60;97497.91;5058977;28;20226;-62
2022/08/14 07:22:46;;;;;;;3.77;3.47;;;;;;;21.83;54.06;97501.84;5056778;28;20216;-61
2022/08/14 07:25:12;;;;;;;3.83;3.53;;;;;;;21.91;53.30;97490.97;5058817;28;20333;-62
2022/08/14 07:27:39;;;;;;;3.70;3.40;;;;;;;21.94;53.91;97493.28;5061494;28;20230;-62
2022/08/14 07:30:06;;;;;;;3.70;3.40;;;;;;;22.02;54.02;97500.38;5059588;28;20329;-62
2022/08/14 07:32:33;;;;;;;3.73;3.43;;;;;;;22.16;52.81;97502.16;5058554;28;20238;-62
2022/08/14 07:35:01;;;;;;;4.17;3.87;;;;;;;22.22;53.23;97501.41;5055971;28;20209;-63
2022/08/14 07:37:28;;;;;;;3.70;3.40;;;;;;;22.35;52.84;97498.81;5058719;28;20597;-64
2022/08/14 07:39:54;;;;;;;3.67;3.37;;;;;;;22.51;51.91;97502.13;5057043;28;20248;-63
2022/08/14 07:42:22;;;;;;;4.93;3.50;;;;;;;22.63;52.00;97505.94;5057112;28;20207;-63
2022/08/14 07:44:49;;;;;;;3.70;3.40;;;;;;;22.72;50.95;97515.53;5056883;28;20219;-63
2022/08/14 07:47:15;;;;;;;4.17;3.77;;;;;;;22.72;51.05;97515.53;5057698;28;20693;-63
2022/08/14 07:49:42;;;;;;;3.60;3.30;;;;;;;22.80;51.04;97512.66;5057779;28;20212;-62
2022/08/14 07:52:11;;;;;;;4.17;3.63;;;;;;;22.93;51.18;97507.38;5057179;28;20212;-63
2022/08/14 07:54:37;;;;;;;3.70;3.40;;;;;;;23.06;51.15;97512.88;5056610;28;20224;-62
2022/08/14 07:57:04;;;;;;;3.70;3.37;;;;;;;23.15;50.67;97508.13;5058824;28;20266;-62
2022/08/14 07:59:31;;;;;;;4.63;3.50;;;;;;;23.32;50.43;97518.41;5058266;28;20203;-62
2022/08/14 08:01:57;;;;;;;4.27;3.27;;;;;;;23.50;50.15;97510.63;5056666;28;20223;-63
2022/08/14 08:04:26;;;;;;;3.37;3.07;;;;;;;23.63;49.27;97510.66;5056517;28;20266;-62
2022/08/14 08:06:53;;;;;;;3.07;2.87;;;;;;;23.73;49.16;97511.13;5058624;28;20518;-62
2022/08/14 08:09:26;;;;;;;4.10;3.33;;;;;;;23.83;47.83;97522.34;5058083;28;20218;-62
2022/08/14 08:11:53;;;;;;;3.77;3.30;;;;;;;23.96;47.50;97514.31;5056346;28;20236;-62
2022/08/14 08:14:20;;;;;;;6.27;3.60;;;;;;;24.05;47.38;97513.09;5054341;28;20681;-63
2022/08/14 08:16:48;;;;;;;3.27;3.03;;;;;;;24.15;47.92;97505.41;5058829;28;20212;-63
2022/08/14 08:19:17;;;;;;;3.20;3.00;;;;;;;24.28;47.82;97493.81;5057475;28;20216;-62
2022/08/14 08:21:45;;;;;;;3.37;3.10;;;;;;;24.51;47.60;97494.22;5056024;28;20216;-62
2022/08/14 08:24:11;;;;;;;3.10;2.80;;;;;;;24.71;45.09;97490.53;5056042;28;20617;-63
2022/08/14 08:26:39;;;;;;;3.13;2.92;;;;;;;24.85;45.33;97492.16;5058935;28;20212;-63
2022/08/14 08:29:06;;;;;;;2.80;2.60;;;;;;;25.03;43.64;97484.22;5057160;28;20208;-63
2022/08/14 08:31:32;;;;;;;2.80;2.60;;;;;;;25.12;44.32;97488.34;5056390;28;20236;-62
2022/08/14 08:33:59;;;;;;;2.90;2.70;;;;;;;25.29;43.26;97488.75;5055875;28;20212;-62
2022/08/14 08:36:26;;;;;;;3.00;2.80;;;;;;;25.38;43.20;97488.31;5058376;28;20216;-62
2022/08/14 08:39:00;;;;;;;2.80;2.60;;;;;;;25.50;43.20;97477.63;5057397;28;20216;-63
2022/08/14 08:41:27;;;;;;;3.00;2.65;;;;;;;25.63;42.18;97486.53;5053902;28;20212;-62
2022/08/14 08:44:04;;;;;;;2.65;2.42;;;;;;;25.74;43.27;97491.28;5055923;28;20562;-62
2022/08/14 08:46:30;;;;;;;2.83;2.63;;;;;;;25.85;42.97;97484.34;5052361;28;20213;-62
2022/08/14 08:48:57;;;;;;;4.32;2.78;;;;;;;25.98;41.75;97487.81;5055471;28;20208;-62
2022/08/14 08:51:25;;;;;;;2.90;2.70;;;;;;;26.16;41.32;97493.31;5055580;28;20240;-62
2022/08/14 08:53:56;;;;;;;3.10;2.78;;;;;;;26.32;41.88;97490.09;5055922;28;20220;-63
2022/08/14 08:56:34;;;;;;;2.80;2.60;;;;;;;26.37;41.18;97484.00;5058129;28;20215;-63
2022/08/14 08:59:02;;;;;;;3.03;2.70;;;;;;;26.41;41.22;97475.22;5055497;28;20684;-62
2022/08/14 09:01:30;;;;;;;2.58;2.40;;;;;;;26.60;40.04;97479.69;5055394;28;20244;-63
2022/08/14 09:04:02;;;;;;;2.58;2.42;;;;;;;26.80;39.19;97464.06;5057936;28;20290;-63
2022/08/14 09:06:28;;;;;;;2.80;2.58;;;;;;;26.88;39.53;97463.75;5054320;28;20222;-63
2022/08/14 09:08:55;;;;;;;3.10;2.90;;;;;;;27.02;39.76;97457.16;5055639;28;20207;-63
2022/08/14 09:11:23;;;;;;;4.13;2.83;;;;;;;27.11;39.08;97447.66;5055618;28;20245;-63
2022/08/14 09:13:51;;;;;;;2.80;2.60;;;;;;;27.19;38.34;97458.22;5058199;28;20215;-63
2022/08/14 09:16:21;;;;;;;2.55;2.30;;;;;;;27.28;39.57;97452.25;5056622;28;20623;-63
2022/08/14 09:18:48;;;;;;;2.80;2.60;;;;;;;27.32;38.80;97441.78;5055286;28;20289;-63
2022/08/14 09:21:15;;;;;;;2.90;2.70;;;;;;;27.40;38.78;97444.22;5055165;28;20246;-63
2022/08/14 09:23:41;;;;;;;2.95;2.53;;;;;;;27.58;38.10;97438.75;5058419;28;20269;-63
2022/08/14 09:26:08;;;;;;;2.90;2.70;;;;;;;27.66;37.42;97435.72;5056459;28;20219;-63
2022/08/14 09:28:34;;;;;;;2.90;2.70;;;;;;;27.68;37.95;97448.00;5055305;28;20212;-63
2022/08/14 09:31:02;;;;;;;3.15;2.80;;;;;;;27.74;38.39;97441.66;5055235;28;20238;-63
2022/08/14 09:33:47;;;;;;;3.40;3.10;;;;;;;27.94;37.32;97446.84;5056265;28;20286;-63
2022/08/14 09:36:34;;;;;;;3.30;3.00;;;;;;;28.06;36.92;97450.44;5044349;28;20235;-63
2022/08/14 09:39:08;;;;;;;2.92;2.72;;;;;;;28.05;37.37;97448.75;5055198;28;20226;-63
2022/08/14 09:41:48;;;;;;;3.60;2.85;;;;;;;28.07;37.07;97446.66;5051700;28;20218;-63
2022/08/14 09:44:28;;;;;;;2.97;2.78;;;;;;;28.21;36.81;97453.53;5055128;28;20216;-63
2022/08/14 09:46:55;;;;;;;3.03;2.83;;;;;;;28.22;37.06;97449.75;5054977;28;20586;-63
2022/08/14 09:49:32;;;;;;;3.63;2.80;;;;;;;28.19;36.81;97456.47;5050186;28;20211;-62
2022/08/14 09:52:07;;;;;;;3.38;3.15;;;;;;;28.31;36.47;97449.16;5044113;28;20289;-63
2022/08/14 09:54:38;;;;;;;3.65;3.35;;;;;;;28.41;36.21;97437.75;5054723;28;20222;-63
2022/08/14 09:57:08;;;;;;;3.10;2.90;;;;;;;28.50;36.25;97439.88;5057532;28;20247;-62
2022/08/14 09:59:44;;;;;;;3.28;3.00;;;;;;;28.68;36.17;97433.53;5054483;28;20274;-63
2022/08/14 10:02:22;;;;;;;3.13;2.92;;;;;;;28.75;35.47;97428.81;5055259;28;20242;-63
2022/08/14 10:05:01;;;;;;;3.08;2.83;;;;;;;28.82;35.35;97429.50;5056173;28;20300;-63
2022/08/14 10:07:33;;;;;;;3.17;2.88;;;;;;;28.90;35.83;97427.25;5055750;28;20215;-63
2022/08/14 10:10:00;;;;;;;3.20;3.00;;;;;;;28.91;34.96;97425.38;5054572;28;20692;-63
2022/08/14 10:12:41;;;;;;;3.40;3.10;;;;;;;28.98;34.74;97423.38;5054533;28;20255;-63
2022/08/14 10:15:16;;;;;;;3.15;2.92;;;;;;;29.04;34.92;97411.53;5052295;28;20215;-63
2022/08/14 10:17:42;;;;;;;3.75;3.08;;;;;;;29.18;34.94;97407.47;5055748;28;20277;-63
2022/08/14 10:20:12;;;;;;;3.20;2.90;;;;;;;29.29;34.12;97399.28;5058137;28;20657;-63
2022/08/14 10:22:39;;;;;;;3.47;3.17;;;;;;;29.28;34.45;97397.63;5061061;28;20244;-62
2022/08/14 10:25:12;;;;;;;3.47;3.17;;;;;;;29.30;34.15;97386.50;5057763;28;20212;-63
2022/08/14 10:27:40;;;;;;;3.58;3.25;;;;;;;29.30;34.51;97378.34;5058355;28;20212;-62
2022/08/14 10:30:14;;;;;;;3.30;3.10;;;;;;;29.33;34.11;97377.84;5058064;28;20218;-63
2022/08/14 10:32:44;;;;;;;3.40;3.10;;;;;;;29.49;33.38;97367.03;5054501;28;20337;-63
2022/08/14 10:35:13;;;;;;;3.67;3.05;;;;;;;29.42;33.73;97360.06;5058306;28;20224;-62
2022/08/14 10:37:42;;;;;;;3.40;3.10;;;;;;;29.41;33.50;97342.88;5058193;28;20648;-63
2022/08/14 10:40:10;;;;;;;3.97;3.15;;;;;;;29.52;33.22;97357.53;5058936;28;20212;-63
2022/08/14 10:42:37;;;;;;;3.67;3.17;;;;;;;29.50;33.62;97356.94;5061081;28;20215;-63
2022/08/14 10:45:19;;;;;;;3.25;3.00;;;;;;;29.48;33.33;97359.91;5058252;28;20225;-63
2022/08/14 10:47:46;;;;;;;3.22;3.03;;;;;;;29.34;33.08;97355.81;5058187;28;20298;-62
2022/08/14 10:50:15;;;;;;;3.30;3.00;;;;;;;29.37;33.54;97351.78;5060916;28;20208;-64
2022/08/14 10:52:43;;;;;;;3.03;2.83;;;;;;;29.51;33.68;97336.81;5056919;28;20240;-63
2022/08/14 10:55:12;;;;;;;4.43;3.00;;;;;;;29.63;32.84;97335.72;5057583;28;20751;-63
2022/08/14 10:57:48;;;;;;;3.50;3.20;;;;;;;29.63;32.72;97334.88;5057844;28;20244;-63
2022/08/14 11:00:18;;;;;;;3.67;3.28;;;;;;;29.63;33.14;97318.53;5054489;28;20464;-63
2022/08/14 11:02:44;;;;;;;3.45;3.15;;;;;;;29.72;33.28;97333.44;5057907;28;20215;-63
2022/08/14 11:05:13;;;;;;;3.67;3.25;;;;;;;29.81;33.56;97331.94;5057551;28;20219;-62
2022/08/14 11:07:42;;;;;;;3.40;3.10;;;;;;;29.97;32.59;97325.69;5058048;28;20220;-62
2022/08/14 11:10:11;;;;;;;3.10;2.90;;;;;;;30.00;32.98;97325.19;5060117;28;20215;-62
2022/08/14 11:12:46;;;;;;;4.07;3.60;;;;;;;30.14;32.51;97329.28;5057075;28;20236;-63
2022/08/14 11:15:15;;;;;;;3.45;3.25;;;;;;;30.16;32.68;97319.78;5057175;28;20673;-63
2022/08/14 11:17:45;;;;;;;3.38;3.13;;;;;;;30.14;32.27;97326.56;5058002;28;20386;-63
2022/08/14 11:20:12;;;;;;;3.53;3.22;;;;;;;30.17;32.14;97320.59;5058522;28;20230;-64
2022/08/14 11:22:41;;;;;;;3.95;3.55;;;;;;;30.26;32.16;97314.47;5057367;28;20212;-64
2022/08/14 11:25:10;;;;;;;3.40;3.20;;;;;;;30.26;31.70;97321.84;5057213;28;20247;-63
2022/08/14 11:27:39;;;;;;;3.35;3.13;;;;;;;30.28;31.88;97322.41;5060263;28;20215;-64
2022/08/14 11:30:09;;;;;;;3.40;3.10;;;;;;;30.26;32.02;97322.66;5057024;28;20222;-63
2022/08/14 11:32:36;;;;;;;5.10;3.30;;;;;;;30.35;32.33;97323.06;5056869;28;20250;-63
2022/08/14 11:35:04;;;;;;;3.72;3.30;;;;;;;30.33;31.74;97323.28;5056685;28;20212;-63
2022/08/14 11:37:32;;;;;;;3.10;2.90;;;;;;;30.29;31.67;97318.59;5051823;28;20215;-64
2022/08/14 11:40:00;;;;;;;3.22;3.00;;;;;;;30.26;31.75;97324.56;5056694;28;20220;-63
2022/08/14 11:42:28;;;;;;;3.45;3.17;;;;;;;30.25;31.71;97321.00;5055947;28;20744;-64
2022/08/14 11:44:57;;;;;;;3.47;3.17;;;;;;;30.46;31.57;97320.25;5055303;28;20212;-63
2022/08/14 11:47:24;;;;;;;3.60;3.30;;;;;;;30.55;31.80;97321.47;5053140;28;20227;-63
2022/08/14 11:49:52;;;;;;;3.10;2.90;;;;;;;30.61;31.41;97322.34;5044791;28;20602;-64
2022/08/14 11:52:18;;;;;;;3.53;3.22;;;;;;;30.60;31.34;97327.00;5056487;28;20275;-63
2022/08/14 11:54:56;;;;;;;3.10;2.90;;;;;;;30.56;31.31;97314.13;5056701;28;20208;-63
2022/08/14 11:57:24;;;;;;;3.97;3.30;;;;;;;30.53;31.08;97311.88;5053797;28;20235;-63